Time;durP1;ratioP1;P1;durP2;ratioP2;P2;SDS_P1;SDS_P2;PMS_P1;PMS_P2;Temp;Humidity;BMP_temperature;BMP_pressure;BME280_temperature;BME280_humidity;BME280_pressure;Samples;Min_cycle;Max_cycle;Signal;HPM_P1;HPM_P2
2022/07/10 00:00:35;;;;;;;0.17;0.17;;;;;;;22.19;51.79;94984.72;5046271;28;20443;-79
2022/07/10 00:03:05;;;;;;;0.60;0.60;;;;;;;21.75;51.64;94922.06;5003126;28;20913;-78
2022/07/10 00:05:53;;;;;;;0.63;0.63;;;;;;;22.52;50.80;94987.41;5029580;28;20466;-81
2022/07/10 00:08:20;;;;;;;0.63;0.63;;;;;;;21.87;51.91;94950.72;5019999;28;20535;-79
2022/07/10 00:10:47;;;;;;;0.60;0.60;;;;;;;22.14;52.11;94975.03;5018292;28;20495;-84
2022/07/10 00:13:14;;;;;;;1.77;1.37;;;;;;;21.36;53.84;94988.31;5039122;28;20479;-76
2022/07/10 00:15:41;;;;;;;0.77;0.77;;;;;;;21.22;54.37;94985.09;5027803;28;20448;-80
2022/07/10 00:18:08;;;;;;;0.63;0.47;;;;;;;21.41;53.64;94998.78;5029968;28;20502;-79
2022/07/10 00:20:36;;;;;;;0.73;0.73;;;;;;;21.91;52.85;94981.00;5043566;28;20970;-80
2022/07/10 00:23:04;;;;;;;1.43;1.37;;;;;;;21.61;53.66;94974.06;5046775;28;20464;-81
2022/07/10 00:25:30;;;;;;;2.40;0.87;;;;;;;21.71;52.90;94952.38;5022772;28;20458;-78
2022/07/10 00:27:57;;;;;;;0.83;0.80;;;;;;;22.02;52.27;94974.19;5046203;28;20526;-77
2022/07/10 00:30:25;;;;;;;2.10;0.73;;;;;;;21.85;52.65;94963.59;5036827;28;20509;-82
2022/07/10 00:32:52;;;;;;;1.13;1.13;;;;;;;21.89;52.34;94967.19;5019176;28;20498;-76
2022/07/10 00:35:20;;;;;;;0.73;0.73;;;;;;;21.87;52.49;94948.06;5014755;28;20461;-80
2022/07/10 00:37:49;;;;;;;1.40;1.30;;;;;;;21.77;52.73;94959.84;5037981;28;20969;-81
2022/07/10 00:40:16;;;;;;;0.40;0.40;;;;;;;21.96;51.78;94932.78;5033911;28;20440;-83
2022/07/10 00:42:43;;;;;;;1.33;1.07;;;;;;;21.66;53.13;94958.66;5022763;28;20479;-82
2022/07/10 00:45:10;;;;;;;0.63;0.40;;;;;;;21.73;52.51;94947.50;5031916;28;20219;-77
2022/07/10 00:47:38;;;;;;;3.87;0.97;;;;;;;21.81;52.52;94954.69;5022371;28;20449;-80
2022/07/10 00:50:06;;;;;;;0.87;0.87;;;;;;;22.01;52.06;94943.25;5029941;28;20455;-79
2022/07/10 00:52:38;;;;;;;0.23;0.23;;;;;;;21.82;52.59;94956.25;5051220;28;20493;-81
2022/07/10 00:55:08;;;;;;;1.57;1.47;;;;;;;22.17;51.37;94954.88;5042869;28;20499;-78
2022/07/10 00:57:37;;;;;;;0.83;0.83;;;;;;;21.97;51.78;94937.00;5011562;28;20839;-80
2022/07/10 01:00:05;;;;;;;1.13;1.13;;;;;;;21.51;53.45;94943.25;5019902;28;20439;-80
2022/07/10 01:02:31;;;;;;;0.90;0.83;;;;;;;21.64;53.24;94938.78;5032611;28;20498;-81
2022/07/10 01:04:58;;;;;;;0.50;0.50;;;;;;;21.98;52.47;94954.56;5010069;28;20448;-79
2022/07/10 01:07:25;;;;;;;1.77;1.03;;;;;;;22.05;51.83;94942.28;5011054;28;20445;-80
2022/07/10 01:09:52;;;;;;;0.77;0.67;;;;;;;21.87;52.19;94956.84;5035330;28;20452;-82
2022/07/10 01:12:21;;;;;;;0.87;0.87;;;;;;;21.99;51.70;94942.78;5045888;28;20479;-81
2022/07/10 01:14:48;;;;;;;1.80;1.50;;;;;;;22.37;51.27;94943.41;5018812;28;20443;-81
2022/07/10 01:17:17;;;;;;;0.30;0.30;;;;;;;21.56;52.81;94928.94;5031939;28;20451;-82
2022/07/10 01:19:44;;;;;;;0.40;0.37;;;;;;;21.85;52.22;94947.59;5016310;28;20837;-83
2022/07/10 01:22:10;;;;;;;0.80;0.80;;;;;;;22.13;52.07;94954.00;5031018;28;20963;-79
2022/07/10 01:24:37;;;;;;;0.73;0.70;;;;;;;21.41;53.35;94937.47;5045939;28;20451;-80
2022/07/10 01:27:05;;;;;;;0.63;0.63;;;;;;;21.79;52.25;94920.34;5051757;28;20993;-80
2022/07/10 01:29:32;;;;;;;1.90;1.00;;;;;;;21.91;51.59;94923.09;5021955;28;20436;-80
2022/07/10 01:32:00;;;;;;;0.50;0.50;;;;;;;21.46;53.24;94940.75;5049332;28;20486;-82
2022/07/10 01:34:28;;;;;;;0.80;0.80;;;;;;;21.34;53.46;94915.88;5030453;28;20440;-76
2022/07/10 01:36:55;;;;;;;1.40;1.30;;;;;;;21.33;53.26;94927.66;5032390;28;20439;-75
2022/07/10 01:39:21;;;;;;;1.00;0.97;;;;;;;21.42;53.32;94928.41;5047314;28;20505;-77
2022/07/10 01:41:48;;;;;;;2.13;1.00;;;;;;;21.52;53.12;94920.81;5014607;28;20835;-80
2022/07/10 01:44:15;;;;;;;0.73;0.60;;;;;;;21.33;53.69;94917.00;5021377;28;20815;-77
2022/07/10 01:46:46;;;;;;;1.37;1.30;;;;;;;21.45;53.38;94925.06;5015645;28;20487;-75
2022/07/10 01:49:13;;;;;;;1.63;1.53;;;;;;;21.10;54.16;94911.94;5016243;28;20979;-79
2022/07/10 01:51:41;;;;;;;0.57;0.57;;;;;;;20.58;56.08;94920.38;5015286;28;20461;-72
2022/07/10 01:54:07;;;;;;;0.87;0.87;;;;;;;20.57;56.16;94924.91;5022172;28;20462;-76
2022/07/10 01:56:35;;;;;;;0.97;0.77;;;;;;;21.15;54.32;94900.28;5022944;28;20448;-74
2022/07/10 01:59:03;;;;;;;0.87;0.80;;;;;;;21.33;53.34;94909.75;5042428;28;20463;-80
2022/07/10 02:01:33;;;;;;;0.43;0.43;;;;;;;22.11;51.88;94918.84;5031087;28;20452;-79
2022/07/10 02:06:45;;;;;;;2.43;0.60;;;;;;;21.68;52.33;94897.00;5010774;28;20452;-80
2022/07/10 02:09:14;;;;;;;1.07;0.67;;;;;;;21.34;53.32;94898.00;5011786;28;20966;-75
2022/07/10 02:11:41;;;;;;;0.83;0.83;;;;;;;21.36;53.43;94914.47;5038018;28;20443;-75
2022/07/10 02:14:08;;;;;;;0.57;0.57;;;;;;;21.47;52.98;94920.19;5022884;28;20440;-77
2022/07/10 02:16:35;;;;;;;0.57;0.57;;;;;;;21.32;53.40;94902.88;5023980;28;20516;-78
2022/07/10 02:19:03;;;;;;;0.93;0.87;;;;;;;21.33;53.16;94914.34;5010893;28;20472;-76
2022/07/10 02:21:29;;;;;;;0.87;0.87;;;;;;;21.65;52.33;94921.66;5013294;28;20444;-77
2022/07/10 02:23:56;;;;;;;3.60;1.17;;;;;;;21.35;53.03;94912.13;5010246;28;21020;-75
2022/07/10 02:26:23;;;;;;;0.47;0.43;;;;;;;21.22;53.42;94915.81;5010338;28;20472;-76
2022/07/10 02:28:50;;;;;;;1.10;1.07;;;;;;;21.35;53.19;94909.47;5021638;28;20441;-76
2022/07/10 02:31:17;;;;;;;0.20;0.20;;;;;;;21.36;53.14;94903.00;5049744;28;20447;-76
2022/07/10 02:33:44;;;;;;;1.90;0.63;;;;;;;21.35;52.78;94906.81;5030852;28;20479;-75
2022/07/10 02:36:10;;;;;;;0.60;0.60;;;;;;;21.53;52.42;94900.25;5021933;28;20484;-69
2022/07/10 02:38:37;;;;;;;1.17;0.63;;;;;;;21.00;54.28;94901.63;5010095;28;20445;-69
2022/07/10 02:41:04;;;;;;;0.57;0.57;;;;;;;21.15;53.32;94903.75;5021707;28;20475;-68
2022/07/10 02:43:31;;;;;;;1.20;0.67;;;;;;;21.72;51.96;94900.59;5021843;28;20451;-69
2022/07/10 02:45:58;;;;;;;1.30;1.20;;;;;;;21.45;52.63;94904.53;5008972;28;20476;-69
2022/07/10 02:48:25;;;;;;;1.20;0.90;;;;;;;21.79;51.84;94912.34;5032057;28;20448;-72
2022/07/10 02:50:52;;;;;;;2.33;2.23;;;;;;;21.89;51.92;94911.16;5044456;28;20440;-70
2022/07/10 02:53:19;;;;;;;1.50;1.07;;;;;;;21.60;52.48;94913.84;5038349;28;20478;-70
2022/07/10 02:55:45;;;;;;;1.87;1.77;;;;;;;21.62;52.47;94914.31;5029500;28;20467;-70
2022/07/10 02:58:15;;;;;;;1.63;1.53;;;;;;;21.39;53.09;94918.34;5025928;28;20435;-71
2022/07/10 03:00:41;;;;;;;3.17;2.97;;;;;;;21.83;51.88;94917.78;5048281;28;20439;-72
2022/07/10 03:03:09;;;;;;;2.30;2.20;;;;;;;22.04;51.05;94923.94;5047193;28;20494;-72
2022/07/10 03:05:35;;;;;;;0.47;0.47;;;;;;;22.13;51.13;94921.97;5009257;28;20530;-71
2022/07/10 03:08:02;;;;;;;0.47;0.47;;;;;;;21.99;50.98;94921.44;5022638;28;20445;-74
2022/07/10 03:10:29;;;;;;;1.40;1.30;;;;;;;21.63;52.06;94929.19;5032583;28;20438;-72
2022/07/10 03:12:56;;;;;;;0.60;0.60;;;;;;;21.84;51.38;94935.38;5015980;28;20479;-72
2022/07/10 03:15:23;;;;;;;1.20;1.07;;;;;;;21.91;51.52;94932.97;5038216;28;21304;-73
2022/07/10 03:17:50;;;;;;;0.40;0.40;;;;;;;21.66;51.91;94937.34;5015341;28;20874;-71
2022/07/10 03:20:16;;;;;;;0.87;0.67;;;;;;;21.64;51.80;94928.13;5025366;28;20457;-71
2022/07/10 03:22:43;;;;;;;0.47;0.47;;;;;;;21.77;52.11;94935.09;5047698;28;20438;-72
2022/07/10 03:25:10;;;;;;;0.17;0.17;;;;;;;21.62;52.31;94932.97;5033627;28;20974;-72
2022/07/10 03:27:37;;;;;;;0.87;0.80;;;;;;;22.13;50.58;94933.41;5009386;28;20480;-71
2022/07/10 03:30:04;;;;;;;0.10;0.10;;;;;;;21.83;51.30;94939.13;5040405;28;20448;-71
2022/07/10 03:32:32;;;;;;;2.00;1.90;;;;;;;22.06;51.12;94933.16;5034731;28;20482;-69
2022/07/10 03:34:59;;;;;;;3.80;3.50;;;;;;;21.76;51.69;94933.50;5051593;28;20451;-68
2022/07/10 03:37:26;;;;;;;5.87;5.37;;;;;;;21.13;53.01;94937.13;5051579;28;20473;-70
2022/07/10 03:39:53;;;;;;;0.80;0.80;;;;;;;21.51;52.32;94932.59;5037874;28;20440;-73
2022/07/10 03:42:20;;;;;;;0.20;0.20;;;;;;;21.13;53.13;94935.25;5052311;28;20447;-72
2022/07/10 03:44:46;;;;;;;0.57;0.57;;;;;;;21.07;53.73;94931.22;5051487;28;20525;-71
2022/07/10 03:47:13;;;;;;;1.20;0.97;;;;;;;20.43;55.00;94940.31;5018695;28;20442;-70
2022/07/10 03:49:41;;;;;;;2.30;1.83;;;;;;;20.71;54.45;94935.41;5043843;28;20443;-70
2022/07/10 03:52:08;;;;;;;0.77;0.77;;;;;;;21.02;54.48;94923.41;5033196;28;20535;-71
2022/07/10 03:54:35;;;;;;;1.03;0.63;;;;;;;20.58;55.29;94929.16;5031954;28;20460;-72
2022/07/10 03:59:47;;;;;;;0.90;0.90;;;;;;;21.41;53.29;94932.16;5036588;28;20504;-71
2022/07/10 04:02:14;;;;;;;0.10;0.10;;;;;;;21.09;53.74;94921.00;5031229;28;20958;-75
2022/07/10 04:04:41;;;;;;;0.40;0.40;;;;;;;21.10;54.08;94927.13;5018789;28;20448;-70
2022/07/10 04:07:10;;;;;;;3.73;2.93;;;;;;;21.19;53.52;94917.22;5041448;28;20443;-74
2022/07/10 04:09:37;;;;;;;0.67;0.67;;;;;;;21.45;53.20;94923.19;5012179;28;20823;-73
2022/07/10 04:12:04;;;;;;;4.80;4.07;;;;;;;21.09;53.87;94921.00;5011942;28;20441;-70
2022/07/10 04:14:31;;;;;;;1.33;0.90;;;;;;;21.25;53.49;94912.47;5045412;28;20438;-75
2022/07/10 04:16:59;;;;;;;0.40;0.40;;;;;;;21.10;53.22;94889.81;5042288;28;20443;-75
2022/07/10 04:19:25;;;;;;;0.63;0.63;;;;;;;21.36;53.37;94908.34;5018929;28;20448;-75
2022/07/10 04:21:52;;;;;;;1.23;1.13;;;;;;;22.07;51.68;94912.59;5043710;28;20439;-74
2022/07/10 04:24:19;;;;;;;0.40;0.40;;;;;;;21.47;52.51;94910.34;5044637;28;20435;-77
2022/07/10 04:26:46;;;;;;;0.40;0.40;;;;;;;21.18;53.30;94897.78;5016851;28;20471;-74
2022/07/10 04:29:13;;;;;;;0.50;0.50;;;;;;;21.66;52.17;94901.91;5019609;28;20444;-74
2022/07/10 04:31:39;;;;;;;0.70;0.70;;;;;;;21.51;52.46;94902.47;5046862;28;20442;-78
2022/07/10 04:34:06;;;;;;;0.20;0.20;;;;;;;21.95;51.62;94905.31;5051351;28;20518;-73
2022/07/10 04:36:33;;;;;;;0.63;0.63;;;;;;;21.85;51.18;94894.25;5023273;28;20449;-74
2022/07/10 04:39:00;;;;;;;0.57;0.57;;;;;;;21.74;51.95;94914.38;5034045;28;20439;-75
2022/07/10 04:41:27;;;;;;;0.97;0.97;;;;;;;21.42;52.75;94912.41;5024913;28;20471;-74
2022/07/10 04:43:54;;;;;;;0.10;0.10;;;;;;;21.55;52.34;94890.06;5018921;28;20444;-79
2022/07/10 04:46:21;;;;;;;0.77;0.77;;;;;;;22.24;51.16;94907.13;5017239;28;21330;-74
2022/07/10 04:48:47;;;;;;;0.50;0.50;;;;;;;22.14;50.53;94897.63;5016651;28;20443;-75
2022/07/10 04:51:14;;;;;;;0.40;0.40;;;;;;;22.07;50.95;94904.59;5042135;28;20493;-74
2022/07/10 04:53:41;;;;;;;0.90;0.90;;;;;;;22.15;50.60;94899.16;5044959;28;20480;-73
2022/07/10 04:56:08;;;;;;;1.10;1.03;;;;;;;22.27;50.32;94889.66;5010023;28;20840;-76
2022/07/10 04:58:35;;;;;;;0.70;0.70;;;;;;;22.04;50.53;94897.25;5043267;28;20444;-73
2022/07/10 05:01:02;;;;;;;0.17;0.17;;;;;;;22.23;50.87;94905.53;5019838;28;20444;-67
2022/07/10 05:03:29;;;;;;;1.00;1.00;;;;;;;22.28;50.08;94902.66;5024344;28;20445;-71
2022/07/10 05:05:56;;;;;;;2.53;1.33;;;;;;;22.34;50.40;94906.69;5018490;28;20451;-67
2022/07/10 05:08:23;;;;;;;0.30;0.30;;;;;;;22.36;50.39;94901.81;5022508;28;20457;-66
2022/07/10 05:10:50;;;;;;;0.33;0.33;;;;;;;22.68;49.88;94902.94;5038556;28;20879;-69
2022/07/10 05:13:17;;;;;;;0.57;0.57;;;;;;;22.95;48.51;94895.09;5037261;28;21086;-68
2022/07/10 05:15:46;;;;;;;0.70;0.70;;;;;;;22.68;48.95;94901.03;5024282;28;20511;-69
2022/07/10 05:18:13;;;;;;;2.03;1.93;;;;;;;22.56;49.31;94901.03;5049164;28;20447;-69
2022/07/10 05:20:43;;;;;;;0.80;0.80;;;;;;;22.77;49.23;94904.38;5038521;28;20205;-69
2022/07/10 05:23:10;;;;;;;1.60;1.23;;;;;;;23.08;48.46;94910.00;5044105;28;20448;-69
2022/07/10 05:25:37;;;;;;;0.40;0.40;;;;;;;22.47;49.66;94899.50;5040091;28;20869;-70
2022/07/10 05:28:04;;;;;;;0.70;0.70;;;;;;;22.82;48.21;94892.72;5031225;28;20458;-66
2022/07/10 05:30:32;;;;;;;0.50;0.50;;;;;;;22.70;49.11;94892.72;5010207;28;20553;-67
2022/07/10 05:32:59;;;;;;;0.57;0.57;;;;;;;23.45;47.52;94894.00;5024380;28;20464;-67
2022/07/10 05:35:26;;;;;;;0.53;0.53;;;;;;;23.61;47.66;94890.28;5036781;28;20969;-68
2022/07/10 05:37:53;;;;;;;0.63;0.63;;;;;;;23.27;47.89;94895.31;5049510;28;20438;-67
2022/07/10 05:40:20;;;;;;;2.00;1.80;;;;;;;23.17;47.75;94901.09;5035361;28;20953;-69
2022/07/10 05:42:47;;;;;;;0.60;0.60;;;;;;;22.82;48.68;94901.53;5049984;28;20570;-69
2022/07/10 05:45:14;;;;;;;0.40;0.40;;;;;;;22.68;49.19;94901.03;5028069;28;20836;-69
2022/07/10 05:47:40;;;;;;;0.40;0.40;;;;;;;23.37;48.15;94900.25;5018918;28;20501;-68
2022/07/10 05:50:08;;;;;;;2.03;1.93;;;;;;;23.27;47.76;94906.00;5044863;28;20446;-73
2022/07/10 05:52:35;;;;;;;2.73;2.43;;;;;;;23.53;47.84;94898.44;5049251;28;20212;-70
2022/07/10 05:55:02;;;;;;;0.60;0.60;;;;;;;24.02;46.54;94894.56;5020621;28;20495;-70
2022/07/10 05:57:32;;;;;;;0.70;0.70;;;;;;;23.75;46.83;94898.75;5028903;28;20439;-69
2022/07/10 05:59:59;;;;;;;6.80;0.67;;;;;;;24.33;45.98;94900.03;5018895;28;20202;-68
2022/07/10 06:02:26;;;;;;;0.40;0.40;;;;;;;23.52;46.12;94902.25;5028930;28;20219;-68
2022/07/10 06:04:53;;;;;;;0.70;0.70;;;;;;;23.49;46.58;94892.19;5043676;28;20201;-69
2022/07/10 06:07:19;;;;;;;0.70;0.70;;;;;;;23.85;45.81;94892.13;5040581;28;20196;-69
2022/07/10 06:09:46;;;;;;;0.50;0.50;;;;;;;23.80;46.77;94887.03;5007863;28;20201;-67
2022/07/10 06:12:15;;;;;;;0.60;0.60;;;;;;;23.45;46.39;94902.03;5008293;28;20841;-70
2022/07/10 06:14:42;;;;;;;0.40;0.40;;;;;;;23.85;46.59;94892.13;5008599;28;20488;-69
2022/07/10 06:17:09;;;;;;;2.20;1.30;;;;;;;23.85;46.62;94895.59;5016559;28;20223;-69
2022/07/10 06:19:37;;;;;;;0.87;0.83;;;;;;;24.47;45.80;94892.38;5011538;28;20263;-66
2022/07/10 06:24:50;;;;;;;0.97;0.53;;;;;;;24.67;44.42;94891.38;5010588;28;20201;-67
2022/07/10 06:27:17;;;;;;;1.60;1.50;;;;;;;24.28;45.50;94892.25;5011193;28;20259;-68
2022/07/10 06:29:44;;;;;;;0.50;0.50;;;;;;;24.85;43.74;94884.59;5010473;28;20256;-70
2022/07/10 06:32:10;;;;;;;0.63;0.63;;;;;;;24.75;44.44;94889.69;5007977;28;20248;-70
2022/07/10 06:34:37;;;;;;;2.03;1.13;;;;;;;24.50;43.85;94883.69;5013490;28;20214;-66
2022/07/10 06:37:05;;;;;;;0.23;0.23;;;;;;;24.13;45.08;94890.31;5008743;28;20725;-67
2022/07/10 06:39:34;;;;;;;1.50;1.23;;;;;;;24.56;43.91;94876.94;5010770;28;20205;-67
2022/07/10 06:42:05;;;;;;;1.63;1.53;;;;;;;24.38;43.23;94891.00;5028842;28;20219;-65
2022/07/10 06:44:39;;;;;;;0.70;0.60;;;;;;;24.53;43.41;94888.34;5042731;28;20213;-68
2022/07/10 06:49:53;;;;;;;2.27;0.50;;;;;;;24.11;43.30;94887.19;5045897;28;20197;-67
2022/07/10 06:52:20;;;;;;;0.40;0.40;;;;;;;24.08;43.77;94877.16;5048771;28;20231;-69
2022/07/10 06:54:48;;;;;;;2.13;0.43;;;;;;;24.25;43.75;94871.50;5031066;28;20279;-68
2022/07/10 06:57:17;;;;;;;0.23;0.23;;;;;;;24.63;43.28;94866.41;5007599;28;20276;-67
2022/07/10 06:59:45;;;;;;;0.77;0.77;;;;;;;24.73;43.30;94876.66;5017918;28;20193;-71
2022/07/10 07:02:11;;;;;;;1.17;0.63;;;;;;;25.20;43.33;94875.88;5017044;28;20197;-68
2022/07/10 07:04:38;;;;;;;0.40;0.40;;;;;;;24.30;43.15;94879.31;5022549;28;20705;-71
2022/07/10 07:07:05;;;;;;;0.57;0.57;;;;;;;24.72;42.91;94880.47;5033817;28;20260;-68
2022/07/10 07:09:32;;;;;;;0.43;0.43;;;;;;;24.57;42.76;94878.50;5012188;28;20186;-70
2022/07/10 07:11:59;;;;;;;0.40;0.40;;;;;;;24.44;43.34;94873.53;5011095;28;20220;-69
2022/07/10 07:14:26;;;;;;;0.20;0.20;;;;;;;24.54;43.07;94879.16;5017944;28;20279;-69
2022/07/10 07:17:04;;;;;;;0.40;0.40;;;;;;;25.13;44.19;94873.03;5041065;28;20192;-71
2022/07/10 07:25:09;;;;;;;0.60;0.60;;;;;;;25.28;42.15;94880.25;5036639;28;20251;-68
2022/07/10 07:27:37;;;;;;;0.33;0.33;;;;;;;25.08;41.55;94882.88;5044078;28;20293;-68
2022/07/10 07:30:06;;;;;;;0.30;0.30;;;;;;;25.41;41.29;94871.03;5039807;28;20643;-73
2022/07/10 07:32:33;;;;;;;1.47;0.93;;;;;;;;;;5042320;28;20277;-68
2022/07/10 07:35:00;;;;;;;0.57;0.30;;;;;;;25.04;42.18;94870.50;5022817;28;20679;-69
2022/07/10 07:37:46;;;;;;;0.70;0.70;;;;;;;24.72;43.13;94872.41;5008386;28;20259;-71
2022/07/10 07:40:14;;;;;;;2.00;1.30;;;;;;;25.47;42.76;94870.44;5008515;28;20190;-69
2022/07/10 07:42:41;;;;;;;0.40;0.40;;;;;;;25.52;43.29;94877.41;5035874;28;20654;-68
2022/07/10 07:45:09;;;;;;;0.30;0.30;;;;;;;26.22;41.79;94880.84;5021375;28;20682;-68
2022/07/10 07:48:02;;;;;;;1.27;1.27;;;;;;;25.94;40.89;94864.91;5021908;28;20198;-71
2022/07/10 07:50:34;;;;;;;2.47;2.10;;;;;;;26.11;41.34;94869.91;5025943;28;20234;-69
2022/07/10 07:53:02;;;;;;;1.07;0.97;;;;;;;26.18;42.00;94858.50;5030845;28;20197;-69
2022/07/10 07:55:31;;;;;;;0.37;0.37;;;;;;;26.52;43.30;94866.44;5008079;28;20720;-69
2022/07/10 07:57:57;;;;;;;1.07;1.03;;;;;;;26.92;42.13;94856.06;5026709;28;20202;-69
2022/07/10 08:00:26;;;;;;;0.50;0.50;;;;;;;26.52;41.40;94863.78;5045609;28;20204;-69
2022/07/10 08:02:54;;;;;;;0.73;0.73;;;;;;;26.47;40.79;94860.59;5027345;28;20201;-69
2022/07/10 08:05:24;;;;;;;0.73;0.73;;;;;;;26.75;41.84;94851.16;5012793;28;20202;-69
2022/07/10 08:07:57;;;;;;;0.80;0.80;;;;;;;26.95;39.31;94849.94;5013701;28;20687;-68
2022/07/10 08:10:26;;;;;;;0.20;0.20;;;;;;;26.36;39.15;94855.03;5007670;28;20268;-67
2022/07/10 08:12:54;;;;;;;3.40;1.37;;;;;;;26.86;39.02;94851.34;5010884;28;20233;-71
2022/07/10 08:15:22;;;;;;;0.77;0.77;;;;;;;26.82;38.29;94850.50;5040024;28;20254;-68
2022/07/10 08:17:51;;;;;;;0.40;0.40;;;;;;;26.34;37.99;94851.13;5032962;28;20204;-66
2022/07/10 08:20:18;;;;;;;0.57;0.57;;;;;;;26.93;37.58;94851.47;5028215;28;20204;-72
2022/07/10 08:22:46;;;;;;;0.77;0.33;;;;;;;26.92;38.26;94850.69;5036862;28;20208;-70
2022/07/10 08:25:13;;;;;;;1.10;1.10;;;;;;;26.90;39.43;94852.94;5051089;28;20213;-75
2022/07/10 08:27:40;;;;;;;0.67;0.67;;;;;;;27.22;37.48;94852.69;5024890;28;20292;-72
2022/07/10 08:30:09;;;;;;;3.33;0.87;;;;;;;27.62;36.59;94852.91;5044167;28;20193;-69
2022/07/10 08:32:36;;;;;;;0.70;0.70;;;;;;;27.51;37.15;94847.41;5042149;28;21007;-68
2022/07/10 08:35:04;;;;;;;8.07;1.50;;;;;;;27.65;38.58;94846.81;5032016;28;20594;-67
2022/07/10 08:37:43;;;;;;;0.77;0.77;;;;;;;27.97;35.76;94848.03;5040393;28;20222;-72
2022/07/10 08:40:12;;;;;;;18.23;6.50;;;;;;;28.61;36.26;94846.84;5011098;28;20189;-73
2022/07/10 08:42:43;;;;;;;5.57;4.87;;;;;;;29.09;34.33;94851.13;5019434;28;20212;-66
2022/07/10 08:45:11;;;;;;;1.70;1.40;;;;;;;28.92;33.51;94847.13;5011454;28;20610;-72
2022/07/10 08:47:41;;;;;;;1.10;1.03;;;;;;;27.86;34.98;94860.56;5018238;28;20204;-67
2022/07/10 08:50:22;;;;;;;0.77;0.50;;;;;;;27.60;35.21;94852.50;5014688;28;20202;-69
2022/07/10 08:52:56;;;;;;;11.67;10.50;;;;;;;28.03;34.92;94848.50;5012597;28;20201;-69
2022/07/10 08:55:26;;;;;;;1.60;1.20;;;;;;;27.35;34.85;94851.38;5012592;28;20274;-67
2022/07/10 08:57:57;;;;;;;1.93;0.77;;;;;;;27.49;35.66;94840.81;5012183;28;20292;-70
2022/07/10 09:00:24;;;;;;;0.50;0.50;;;;;;;27.50;35.65;94837.75;5021657;28;20197;-68
2022/07/10 09:02:53;;;;;;;2.67;1.30;;;;;;;27.27;34.76;94833.53;5020809;28;20193;-69
2022/07/10 09:05:20;;;;;;;0.50;0.50;;;;;;;27.75;34.60;94840.78;5014651;28;20288;-68
2022/07/10 09:07:47;;;;;;;0.73;0.73;;;;;;;26.93;35.07;94846.84;5013034;28;20280;-64
2022/07/10 09:10:14;;;;;;;0.20;0.20;;;;;;;26.85;35.02;94847.88;5018164;28;20185;-68
2022/07/10 09:12:53;;;;;;;0.50;0.50;;;;;;;27.58;35.40;94833.25;5015613;28;20218;-67
2022/07/10 09:15:22;;;;;;;5.20;2.93;;;;;;;26.98;35.40;94841.19;5025724;28;20612;-67
2022/07/10 09:17:57;;;;;;;0.30;0.30;;;;;;;26.91;35.17;94838.38;5048914;28;20205;-69
2022/07/10 09:20:39;;;;;;;0.50;0.50;;;;;;;26.65;35.90;94835.59;5029563;28;20687;-67
2022/07/10 09:23:22;;;;;;;0.40;0.40;;;;;;;27.70;35.12;94833.78;5029571;28;20204;-67
2022/07/10 09:25:52;;;;;;;0.70;0.70;;;;;;;27.59;34.83;94832.13;5038444;28;20240;-69
2022/07/10 09:28:21;;;;;;;0.20;0.20;;;;;;;27.38;35.42;94832.59;5049355;28;20219;-68
2022/07/10 09:30:48;;;;;;;0.30;0.30;;;;;;;27.81;36.08;94826.63;5031197;28;20198;-69
2022/07/10 09:33:33;;;;;;;0.30;0.30;;;;;;;28.27;35.61;94819.13;5026319;28;20204;-64
2022/07/10 09:36:05;;;;;;;0.23;0.23;;;;;;;28.07;35.57;94822.34;5049498;28;20196;-67
2022/07/10 09:38:44;;;;;;;0.30;0.30;;;;;;;28.66;34.22;94817.63;5018834;28;20205;-69
2022/07/10 09:41:15;;;;;;;0.57;0.57;;;;;;;28.73;35.29;94809.59;5009218;28;20213;-67
2022/07/10 09:43:53;;;;;;;1.23;1.13;;;;;;;28.24;36.20;94819.88;5008997;28;20285;-75
2022/07/10 09:46:25;;;;;;;0.90;0.90;;;;;;;28.88;33.45;94814.00;5009012;28;20205;-66
2022/07/10 09:49:13;;;;;;;2.00;1.43;;;;;;;28.96;34.99;94815.56;5021313;28;20197;-68
2022/07/10 09:51:42;;;;;;;1.53;0.70;;;;;;;28.28;34.99;94812.59;5020846;28;20224;-68
2022/07/10 09:54:15;;;;;;;0.40;0.40;;;;;;;28.49;35.89;94818.19;5007921;28;20302;-65
2022/07/10 09:56:47;;;;;;;0.87;0.87;;;;;;;28.63;34.59;94815.66;5014670;28;20192;-69
2022/07/10 09:59:16;;;;;;;0.50;0.50;;;;;;;28.65;34.52;94815.28;5020868;28;20190;-70
2022/07/10 10:01:46;;;;;;;1.83;1.73;;;;;;;28.29;34.87;94814.16;5007637;28;20202;-70
2022/07/10 10:04:23;;;;;;;1.03;1.03;;;;;;;28.99;33.78;94812.13;5034591;28;20194;-71
2022/07/10 10:06:56;;;;;;;0.30;0.30;;;;;;;29.34;32.41;94803.53;5009529;28;20201;-69
2022/07/10 10:09:33;;;;;;;1.20;1.17;;;;;;;29.34;32.69;94802.78;5017716;28;20193;-69
2022/07/10 10:12:05;;;;;;;0.60;0.60;;;;;;;29.63;32.23;94799.09;5018678;28;20205;-71
2022/07/10 10:14:34;;;;;;;0.87;0.87;;;;;;;30.00;31.89;94791.56;5042373;28;20213;-67
2022/07/10 10:17:05;;;;;;;1.23;0.60;;;;;;;29.68;33.56;94806.81;5039139;28;20205;-73
2022/07/10 10:22:19;;;;;;;0.40;0.40;;;;;;;29.17;32.89;94792.63;5028220;28;20630;-72
2022/07/10 10:24:47;;;;;;;0.47;0.47;;;;;;;29.25;32.65;94795.00;5028269;28;20201;-73
2022/07/10 10:27:15;;;;;;;0.40;0.40;;;;;;;29.67;32.24;94789.84;5037768;28;20666;-69
2022/07/10 10:29:43;;;;;;;1.70;0.93;;;;;;;29.82;32.81;94782.59;5030756;28;20675;-70
2022/07/10 10:32:10;;;;;;;0.33;0.33;;;;;;;30.56;31.86;94791.75;5016091;28;20197;-68
2022/07/10 10:34:57;;;;;;;0.67;0.67;;;;;;;30.06;32.71;94779.22;5027551;28;20708;-72
2022/07/10 10:37:26;;;;;;;0.37;0.37;;;;;;;30.18;31.46;94788.91;5017395;28;20209;-67
2022/07/10 10:39:55;;;;;;;0.40;0.40;;;;;;;29.23;31.92;94775.72;5027690;28;20272;-67
2022/07/10 10:42:41;;;;;;;0.57;0.43;;;;;;;28.73;32.89;94788.03;5019609;28;20565;-65
2022/07/10 10:45:35;;;;;;;0.20;0.20;;;;;;;29.03;32.25;94795.19;5024914;28;20189;-67
2022/07/10 10:48:02;;;;;;;0.40;0.40;;;;;;;29.19;31.91;94787.63;5040999;28;20208;-66
2022/07/10 10:50:51;;;;;;;0.20;0.20;;;;;;;28.53;33.28;94780.53;5009876;28;20289;-65
2022/07/10 10:53:27;;;;;;;0.57;0.57;;;;;;;28.38;32.14;94778.81;5012501;28;20202;-63
2022/07/10 10:55:59;;;;;;;0.33;0.33;;;;;;;28.28;32.73;94780.28;5021132;28;20228;-62
2022/07/10 10:58:28;;;;;;;0.40;0.40;;;;;;;28.08;33.14;94781.59;5016269;28;20190;-66
2022/07/10 11:01:13;;;;;;;0.60;0.40;;;;;;;28.92;32.49;94777.00;5026732;28;20193;-64
2022/07/10 11:03:40;;;;;;;0.40;0.40;;;;;;;28.61;32.67;94772.13;5017921;28;20198;-63
2022/07/10 11:06:08;;;;;;;0.50;0.50;;;;;;;29.26;32.09;94779.59;5024532;28;21093;-64
2022/07/10 11:08:40;;;;;;;12.23;10.70;;;;;;;29.46;32.63;94780.84;5019302;28;20197;-62
2022/07/10 11:11:32;;;;;;;8.37;2.67;;;;;;;29.40;32.22;94769.63;5018538;28;20252;-63
2022/07/10 11:14:00;;;;;;;2.23;0.93;;;;;;;30.08;33.29;94776.91;5019577;28;20243;-70
2022/07/10 11:16:26;;;;;;;0.37;0.37;;;;;;;29.70;33.42;94772.94;5020531;28;20582;-62
2022/07/10 11:18:54;;;;;;;0.80;0.40;;;;;;;29.74;32.31;94767.53;5018651;28;20258;-60
2022/07/10 11:21:25;;;;;;;0.73;0.73;;;;;;;29.45;31.87;94773.94;5024982;28;20209;-63
2022/07/10 11:24:12;;;;;;;11.90;9.90;;;;;;;29.38;33.74;94771.19;5014166;28;20193;-63
2022/07/10 11:27:11;;;;;;;0.70;0.70;;;;;;;29.64;33.56;94773.63;5020471;28;20236;-62
2022/07/10 11:29:39;;;;;;;0.67;0.67;;;;;;;29.40;34.75;94763.47;5024451;28;20205;-62
2022/07/10 11:32:07;;;;;;;0.37;0.37;;;;;;;28.78;34.05;94774.19;5019076;28;20201;-62
2022/07/10 11:34:36;;;;;;;0.60;0.60;;;;;;;28.85;33.55;94766.16;5020370;28;20739;-62
2022/07/10 11:37:28;;;;;;;0.93;0.90;;;;;;;29.21;32.83;94764.53;5021325;28;20201;-65
2022/07/10 11:40:15;;;;;;;0.70;0.70;;;;;;;29.04;32.60;94761.66;5020107;28;20677;-65
2022/07/10 11:42:49;;;;;;;0.93;0.60;;;;;;;28.84;32.47;94772.72;5026428;28;20205;-66
2022/07/10 11:45:26;;;;;;;2.53;0.93;;;;;;;28.81;32.11;94770.75;5027203;28;20737;-64
2022/07/10 11:47:53;;;;;;;0.70;0.70;;;;;;;28.39;32.98;94764.97;5022065;28;20197;-69
2022/07/10 11:50:20;;;;;;;0.60;0.60;;;;;;;28.59;33.22;94771.75;5030777;28;20201;-70
2022/07/10 11:52:47;;;;;;;0.83;0.83;;;;;;;28.46;32.85;94769.66;5029749;28;20267;-68
2022/07/10 11:55:20;;;;;;;0.53;0.53;;;;;;;28.75;31.97;94777.66;5013729;28;20236;-70
2022/07/10 11:57:50;;;;;;;1.43;0.97;;;;;;;28.69;33.29;94776.44;5025500;28;20220;-67
2022/07/10 12:00:23;;;;;;;0.67;0.67;;;;;;;29.04;33.54;94767.06;5051127;28;20208;-69
2022/07/10 12:02:52;;;;;;;0.30;0.30;;;;;;;29.31;32.60;94765.72;5024584;28;20192;-68